createdAt,value
2022-08-10T00:37:17.009Z,99339.50
2022-08-10T00:39:44.173Z,99342.91
2022-08-10T00:42:13.792Z,99354.66
2022-08-10T00:44:43.364Z,99346.41
2022-08-10T00:47:21.312Z,99348.47
2022-08-10T00:49:57.704Z,99348.56
2022-08-10T00:52:26.919Z,99346.19
2022-08-10T00:54:53.591Z,99345.25
2022-08-10T00:57:20.724Z,99344.59
2022-08-10T00:59:58.136Z,99343.47
2022-08-10T01:02:32.081Z,99346.75
2022-08-10T01:05:02.626Z,99341.56
2022-08-10T01:07:47.996Z,99335.06
2022-08-10T01:10:21.490Z,99336.47
2022-08-10T01:13:11.653Z,99334.66
2022-08-10T01:16:14.109Z,99326.03
2022-08-10T01:18:55.296Z,99334.41
2022-08-10T01:21:53.194Z,99327.69
2022-08-10T01:25:02.277Z,99335.50
2022-08-10T01:27:49.987Z,99332.66
2022-08-10T01:30:17.915Z,99326.25
2022-08-10T01:33:10.493Z,99329.13
2022-08-10T01:35:49.028Z,99326.56
2022-08-10T01:38:26.404Z,99336.84
2022-08-10T01:41:06.480Z,99329.91
2022-08-10T01:43:37.128Z,99334.06
2022-08-10T01:46:05.953Z,99329.94
2022-08-10T01:48:39.571Z,99333.59
2022-08-10T01:51:40.312Z,99337.25
2022-08-10T01:54:13.195Z,99334.28
2022-08-10T01:56:45.814Z,99328.78
2022-08-10T01:59:16.752Z,99333.13
2022-08-10T02:01:47.789Z,99333.09
2022-08-10T02:04:17.055Z,99332.66
2022-08-10T02:06:47.421Z,99329.94
2022-08-10T02:09:19.943Z,99337.88
2022-08-10T02:12:06.755Z,99333.53
2022-08-10T02:14:40.684Z,99331.88
2022-08-10T02:17:59.806Z,99332.44
2022-08-10T02:20:01.980Z,99340.06
2022-08-10T02:22:45.904Z,99341.44
2022-08-10T02:25:41.609Z,99356.72
2022-08-10T02:28:06.280Z,99348.88
2022-08-10T02:30:33.885Z,99350.59
2022-08-10T02:33:01.963Z,99342.78
2022-08-10T02:35:41.167Z,99343.69
2022-08-10T02:38:22.363Z,99352.50
2022-08-10T02:45:03.528Z,99349.84
2022-08-10T02:45:20.594Z,99350.47
2022-08-10T02:47:06.828Z,99352.22
2022-08-10T02:49:38.675Z,99346.16
2022-08-10T02:52:09.261Z,99338.66
2022-08-10T02:54:38.600Z,99347.66
2022-08-10T02:57:19.459Z,99353.50
2022-08-10T02:59:53.010Z,99344.91
2022-08-10T03:02:43.118Z,99345.94
2022-08-10T03:05:12.120Z,99347.06
2022-08-10T03:07:48.912Z,99343.69
2022-08-10T03:10:18.871Z,99347.53
2022-08-10T03:12:49.918Z,99344.91
2022-08-10T03:15:20.527Z,99348.56
2022-08-10T03:17:57.866Z,99357.38
2022-08-10T03:20:37.310Z,99343.94
2022-08-10T03:23:12.179Z,99352.84
2022-08-10T03:25:40.391Z,99343.56
2022-08-10T03:28:07.760Z,99346.09
2022-08-10T03:30:35.198Z,99350.34
2022-08-10T03:33:04.919Z,99345.28
2022-08-10T03:35:33.432Z,99343.41
2022-08-10T03:38:01.140Z,99349.63
2022-08-10T03:40:46.069Z,99350.69
2022-08-10T03:43:17.492Z,99342.41
2022-08-10T03:45:55.180Z,99338.91
2022-08-10T03:48:33.263Z,99349.00
2022-08-10T03:51:13.433Z,99348.63
2022-08-10T03:54:03.726Z,99353.81
2022-08-10T03:56:31.924Z,99346.38
2022-08-10T03:59:00.968Z,99346.88
2022-08-10T04:02:45.905Z,99348.13
2022-08-10T04:04:19.336Z,99355.38
2022-08-10T04:06:51.497Z,99360.13
2022-08-10T04:09:21.485Z,99359.13
2022-08-10T04:11:47.939Z,99364.31
2022-08-10T04:14:38.171Z,99358.34
2022-08-10T04:17:01.497Z,99364.84
2022-08-10T04:19:29.801Z,99365.03
2022-08-10T04:22:10.319Z,99364.78
2022-08-10T04:24:39.412Z,99359.59
2022-08-10T04:27:06.313Z,99365.56
2022-08-10T04:29:35.006Z,99368.88
2022-08-10T04:32:04.957Z,99368.22
2022-08-10T04:34:36.152Z,99366.78
2022-08-10T04:37:08.837Z,99369.03
2022-08-10T04:39:36.365Z,99370.06
2022-08-10T04:42:04.697Z,99376.09
2022-08-10T04:44:32.745Z,99377.31
2022-08-10T04:46:59.639Z,99369.47
2022-08-10T04:49:56.673Z,99377.09
2022-08-10T04:52:15.076Z,99382.97
2022-08-10T04:54:41.972Z,99377.78
2022-08-10T04:57:08.506Z,99384.06
2022-08-10T04:59:36.119Z,99383.50
2022-08-10T05:02:21.290Z,99383.38
2022-08-10T05:04:50.935Z,99387.47
2022-08-10T05:07:18.328Z,99385.72
2022-08-10T05:10:03.044Z,99375.69
2022-08-10T05:12:39.058Z,99384.31
2022-08-10T05:15:12.877Z,99380.94
2022-08-10T05:17:41.275Z,99390.88
2022-08-10T05:20:28.106Z,99389.72
2022-08-10T05:22:54.585Z,99394.63
2022-08-10T05:25:21.271Z,99406.28
2022-08-10T05:27:48.244Z,99398.78
2022-08-10T05:30:19.024Z,99401.41
2022-08-10T05:32:57.381Z,99389.16
2022-08-10T05:35:27.773Z,99396.34
2022-08-10T05:38:12.734Z,99392.44
2022-08-10T05:40:46.525Z,99388.59
2022-08-10T05:43:17.036Z,99383.53
2022-08-10T05:46:17.522Z,99392.81
2022-08-10T05:48:55.411Z,99394.66
2022-08-10T05:51:17.960Z,99387.84
2022-08-10T05:54:02.965Z,99396.91
2022-08-10T05:56:56.182Z,99397.03
2022-08-10T06:00:33.383Z,99385.06
2022-08-10T06:02:32.806Z,99388.84
2022-08-10T06:05:00.614Z,99392.06
2022-08-10T06:07:27.125Z,99382.31
2022-08-10T06:09:59.064Z,99384.25
2022-08-10T06:12:30.139Z,99380.09
2022-08-10T06:14:59.691Z,99383.91
2022-08-10T06:17:29.253Z,99379.84
2022-08-10T06:19:57.993Z,99386.38
2022-08-10T06:22:27.504Z,99382.75
2022-08-10T06:25:32.011Z,99394.31
2022-08-10T06:27:45.070Z,99399.22
2022-08-10T06:30:20.294Z,99395.72
2022-08-10T06:32:50.410Z,99405.59
2022-08-10T06:35:18.155Z,99406.81
2022-08-10T06:37:51.702Z,99404.88
2022-08-10T06:40:20.437Z,99416.75
2022-08-10T06:42:49.897Z,99411.09
2022-08-10T06:45:27.502Z,99407.97
2022-08-10T06:48:11.985Z,99413.50
2022-08-10T06:50:56.184Z,99404.25
2022-08-10T06:53:52.126Z,99401.25
2022-08-10T06:56:37.423Z,99408.97
2022-08-10T06:59:21.213Z,99408.75
2022-08-10T07:01:53.090Z,99408.00
2022-08-10T07:04:33.651Z,99415.00
2022-08-10T07:07:05.807Z,99407.84
2022-08-10T07:09:39.881Z,99410.69
2022-08-10T07:12:09.294Z,99406.84
2022-08-10T07:14:42.438Z,99398.91
2022-08-10T07:17:15.996Z,99410.06
2022-08-10T07:19:49.940Z,99405.03
2022-08-10T07:23:27.373Z,99407.66
2022-08-10T07:25:10.765Z,99403.75
2022-08-10T07:28:00.108Z,99409.31
2022-08-10T07:30:30.580Z,99402.50
2022-08-10T07:32:58.528Z,99402.28
2022-08-10T07:35:29.822Z,99400.09
2022-08-10T07:38:00.615Z,99406.75
2022-08-10T07:40:31.320Z,99403.47
2022-08-10T07:43:03.788Z,99405.13
2022-08-10T07:45:35.442Z,99407.56
2022-08-10T07:48:07.927Z,99404.56
2022-08-10T07:50:37.553Z,99405.66
2022-08-10T07:53:08.897Z,99406.19
2022-08-10T07:56:03.507Z,99402.91
2022-08-10T07:58:31.171Z,99402.91
2022-08-10T08:00:59.178Z,99398.00
2022-08-10T08:03:29.619Z,99405.66
2022-08-10T08:06:05.422Z,99401.25
2022-08-10T08:08:40.896Z,99399.09
2022-08-10T08:11:09.781Z,99399.34
2022-08-10T08:13:54.527Z,99398.41
2022-08-10T08:16:23.743Z,99397.41
2022-08-10T08:19:24.093Z,99395.63
2022-08-10T08:24:09.034Z,99388.75
2022-08-10T08:24:34.231Z,99396.06
2022-08-10T08:27:02.504Z,99402.19
2022-08-10T08:29:33.270Z,99406.84
2022-08-10T08:32:03.156Z,99405.72
2022-08-10T08:34:37.213Z,99408.94
2022-08-10T08:37:04.776Z,99411.25
2022-08-10T08:39:32.010Z,99417.31
2022-08-10T08:42:27.619Z,99408.75
2022-08-10T08:45:13.815Z,99417.09
2022-08-10T08:48:24.747Z,99410.63
2022-08-10T08:51:13.393Z,99406.53
2022-08-10T08:54:10.912Z,99403.13
2022-08-10T08:57:08.316Z,99408.91
2022-08-10T09:00:05.667Z,99398.53
2022-08-10T09:03:02.964Z,99396.56
2022-08-10T09:05:58.570Z,99407.16
2022-08-10T09:08:54.105Z,99399.44
2022-08-10T09:12:01.044Z,99396.25
2022-08-10T09:14:37.948Z,99405.38
2022-08-10T09:17:42.459Z,99385.97
2022-08-10T09:20:52.111Z,99398.91
2022-08-10T09:24:04.517Z,99392.97
2022-08-10T09:26:48.717Z,99393.75
2022-08-10T09:29:22.723Z,99380.13
2022-08-10T09:36:14.792Z,99379.38
2022-08-10T09:36:23.505Z,99378.94
2022-08-10T09:38:20.187Z,99378.59
2022-08-10T09:41:16.955Z,99362.00
2022-08-10T09:44:06.382Z,99369.78
2022-08-10T09:46:57.579Z,99378.78
2022-08-10T09:50:03.700Z,99383.38
2022-08-10T09:53:16.493Z,99376.31
2022-08-10T09:56:18.281Z,99378.78
2022-08-10T09:59:29.228Z,99373.00
2022-08-10T10:02:14.705Z,99381.91
2022-08-10T10:04:54.776Z,99375.56
2022-08-10T10:07:27.978Z,99376.09
2022-08-10T10:10:26.915Z,99364.97
2022-08-10T10:12:59.585Z,99369.78
2022-08-10T10:15:50.814Z,99381.13
2022-08-10T10:18:24.401Z,99371.63
2022-08-10T10:21:11.343Z,99374.66
2022-08-10T10:24:20.254Z,99371.28
2022-08-10T10:27:40.510Z,99367.34
2022-08-10T10:30:12.928Z,99371.56
2022-08-10T10:32:42.559Z,99361.81
2022-08-10T10:35:20.753Z,99352.19
2022-08-10T10:38:00.891Z,99349.69
2022-08-10T10:40:46.316Z,99366.72
2022-08-10T10:43:36.423Z,99368.44
2022-08-10T10:46:36.109Z,99359.91
2022-08-10T10:49:22.715Z,99357.91
2022-08-10T10:52:04.110Z,99349.06
2022-08-10T10:54:58.914Z,99342.56
2022-08-10T10:57:58.933Z,99351.50
2022-08-10T11:00:34.631Z,99342.91
2022-08-10T11:03:21.041Z,99336.44
2022-08-10T11:06:14.840Z,99329.38
2022-08-10T11:08:52.181Z,99342.53
2022-08-10T11:12:00.478Z,99345.03
2022-08-10T11:14:41.327Z,99334.50
2022-08-10T11:17:52.655Z,99344.38
2022-08-10T11:20:36.612Z,99341.94
2022-08-10T11:23:17.060Z,99340.28
2022-08-10T11:25:48.048Z,99342.66
2022-08-10T11:28:21.837Z,99349.78
2022-08-10T11:31:15.693Z,99326.81
2022-08-10T11:34:48.316Z,99335.97
2022-08-10T11:37:25.213Z,99345.19
2022-08-10T11:39:59.299Z,99328.00
2022-08-10T11:42:44.509Z,99336.47
2022-08-10T11:45:19.955Z,99330.72
2022-08-10T11:48:54.904Z,99328.69
2022-08-10T11:51:15.005Z,99331.34
2022-08-10T11:53:50.012Z,99329.09
2022-08-10T11:56:41.435Z,99324.00
2022-08-10T11:59:17.221Z,99321.78
2022-08-10T12:01:46.992Z,99321.97
2022-08-10T12:04:16.273Z,99327.56
2022-08-10T12:06:55.570Z,99313.09
2022-08-10T12:10:05.135Z,99317.47
2022-08-10T12:12:12.023Z,99310.72
2022-08-10T12:14:49.664Z,99309.22
2022-08-10T12:17:25.180Z,99317.38
2022-08-10T12:20:14.567Z,99322.56
2022-08-10T12:23:04.531Z,99326.31
2022-08-10T12:25:58.658Z,99327.94
2022-08-10T12:28:50.135Z,99327.94
2022-08-10T12:31:23.405Z,99318.69
2022-08-10T12:34:02.247Z,99305.97
2022-08-10T12:36:37.877Z,99300.66
2022-08-10T12:39:14.937Z,99290.75
2022-08-10T12:41:51.408Z,99290.84
2022-08-10T12:44:42.263Z,99298.50
2022-08-10T12:47:38.063Z,99293.22
2022-08-10T12:50:31.495Z,99292.91
2022-08-10T12:53:45.587Z,99282.59
2022-08-10T12:56:40.210Z,99288.31
2022-08-10T12:59:10.810Z,99292.31
2022-08-10T13:02:10.046Z,99298.22
2022-08-10T13:04:35.132Z,99290.72
2022-08-10T13:07:05.424Z,99288.88
2022-08-10T13:09:33.680Z,99273.78
2022-08-10T13:12:38.520Z,99281.94
2022-08-10T13:15:47.721Z,99276.00
2022-08-10T13:18:03.409Z,99265.53
2022-08-10T13:20:38.191Z,99267.66
2022-08-10T13:23:17.804Z,99263.84
2022-08-10T13:25:47.902Z,99268.16
2022-08-10T13:28:36.638Z,99254.91
2022-08-10T13:31:05.740Z,99254.03
2022-08-10T13:34:41.781Z,99245.41
2022-08-10T13:36:29.935Z,99243.47
2022-08-10T13:38:58.663Z,99241.03
2022-08-10T13:41:30.710Z,99242.59
2022-08-10T13:44:00.403Z,99246.75
2022-08-10T13:46:28.572Z,99240.50
2022-08-10T13:48:58.016Z,99233.28
2022-08-10T13:51:53.860Z,99232.69
2022-08-10T13:54:18.984Z,99234.13
2022-08-10T13:56:50.212Z,99232.09
2022-08-10T13:59:18.580Z,99236.84
2022-08-10T14:01:50.533Z,99230.00
2022-08-10T14:04:19.857Z,99229.16
2022-08-10T14:06:59.029Z,99219.06
2022-08-10T14:09:31.086Z,99228.53
2022-08-10T14:12:00.926Z,99226.41
2022-08-10T14:14:29.239Z,99216.25
2022-08-10T14:16:57.790Z,99213.97
2022-08-10T14:19:31.144Z,99203.16
2022-08-10T14:22:00.135Z,99205.88
2022-08-10T14:24:28.731Z,99216.38
2022-08-10T14:27:10.064Z,99220.69
2022-08-10T14:29:51.941Z,99212.50
2022-08-10T14:32:23.543Z,99200.69
2022-08-10T14:36:16.501Z,99201.09
2022-08-10T14:38:04.719Z,99204.19
2022-08-10T14:40:38.689Z,99198.13
2022-08-10T14:43:11.691Z,99199.00
2022-08-10T14:45:43.005Z,99200.47
2022-08-10T14:48:32.005Z,99196.22
2022-08-10T14:51:00.917Z,99191.47
2022-08-10T14:53:34.631Z,99187.81
2022-08-10T14:56:06.398Z,99181.34
2022-08-10T14:58:38.668Z,99178.00
2022-08-10T15:01:08.842Z,99179.88
2022-08-10T15:04:01.369Z,99180.00
2022-08-10T15:06:32.093Z,99179.00
2022-08-10T15:09:12.309Z,99181.44
2022-08-10T15:12:15.808Z,99179.59
2022-08-10T15:14:42.585Z,99166.88
2022-08-10T15:17:13.141Z,99165.34
2022-08-10T15:20:03.512Z,99170.97
2022-08-10T15:22:50.321Z,99157.63
2022-08-10T15:25:25.127Z,99164.34
2022-08-10T15:27:57.419Z,99161.47
2022-08-10T15:30:29.466Z,99160.50
2022-08-10T15:33:00.555Z,99162.81
2022-08-10T15:35:30.167Z,99148.50
2022-08-10T15:38:04.745Z,99157.72
2022-08-10T15:40:51.748Z,99162.44
2022-08-10T15:43:25.599Z,99153.22
2022-08-10T15:45:58.144Z,99151.06
2022-08-10T15:48:31.352Z,99151.66
2022-08-10T15:51:17.275Z,99150.38
2022-08-10T15:53:49.843Z,99156.38
2022-08-10T15:56:31.564Z,99146.03
2022-08-10T15:59:08.565Z,99149.66
2022-08-10T16:02:04.470Z,99139.72
2022-08-10T16:05:06.527Z,99135.16
2022-08-10T16:07:49.274Z,99129.25
2022-08-10T16:10:29.668Z,99131.16
2022-08-10T16:13:01.310Z,99137.78
2022-08-10T16:15:32.802Z,99136.59
2022-08-10T16:18:07.274Z,99130.34
2022-08-10T16:20:53.527Z,99133.44
2022-08-10T16:23:41.809Z,99133.66
2022-08-10T16:26:13.328Z,99124.78
2022-08-10T16:28:50.259Z,99125.28
2022-08-10T16:31:20.550Z,99118.38
2022-08-10T16:33:57.584Z,99117.34
2022-08-10T16:36:54.162Z,99126.53
2022-08-10T16:40:00.410Z,99122.03
2022-08-10T16:42:18.303Z,99120.69
2022-08-10T16:45:00.206Z,99115.94
2022-08-10T16:47:28.504Z,99121.19
2022-08-10T16:49:58.375Z,99107.41
2022-08-10T16:52:29.442Z,99116.22
2022-08-10T16:55:01.054Z,99121.22
2022-08-10T16:57:52.812Z,99116.13
2022-08-10T17:00:23.976Z,99114.09
2022-08-10T17:03:03.537Z,99109.19
2022-08-10T17:06:10.059Z,99108.31
2022-08-10T17:08:51.872Z,99111.88
2022-08-10T17:11:23.682Z,99109.34
2022-08-10T17:13:50.239Z,99110.84
2022-08-10T17:16:17.572Z,99110.56
2022-08-10T17:18:47.037Z,99104.25
2022-08-10T17:21:15.021Z,99104.06
2022-08-10T17:23:47.387Z,99108.09
2022-08-10T17:26:35.352Z,99105.34
2022-08-10T17:29:50.598Z,99105.75
2022-08-10T17:32:05.915Z,99107.19
2022-08-10T17:34:46.781Z,99107.59
2022-08-10T17:37:20.186Z,99105.97
2022-08-10T17:39:51.863Z,99097.00
2022-08-10T17:42:24.948Z,99109.41
2022-08-10T17:44:54.527Z,99098.41
2022-08-10T17:47:26.344Z,99105.44
2022-08-10T17:49:58.735Z,99101.03
2022-08-10T17:52:30.368Z,99116.63
2022-08-10T17:55:02.992Z,99110.22
2022-08-10T17:57:36.311Z,99108.22
2022-08-10T18:00:06.223Z,99105.44
2022-08-10T18:02:39.355Z,99118.66
2022-08-10T18:05:08.950Z,99113.75
2022-08-10T18:07:44.501Z,99118.34
2022-08-10T18:10:14.651Z,99113.34
2022-08-10T18:12:43.426Z,99113.84
2022-08-10T18:15:19.431Z,99112.88
2022-08-10T18:17:58.308Z,99113.75
2022-08-10T18:20:32.340Z,99120.59
2022-08-10T18:22:59.897Z,99121.72
2022-08-10T18:25:37.518Z,99124.47
2022-08-10T18:28:10.587Z,99131.97
2022-08-10T18:30:45.902Z,99126.81
2022-08-10T18:33:14.197Z,99123.38
2022-08-10T18:35:43.611Z,99125.47
2022-08-10T18:38:12.773Z,99124.63
2022-08-10T18:40:43.414Z,99131.91
2022-08-10T18:44:07.781Z,99129.59
2022-08-10T18:46:00.992Z,99136.34
2022-08-10T18:48:43.445Z,99140.28
2022-08-10T18:51:11.486Z,99135.19
2022-08-10T18:53:50.800Z,99141.81
2022-08-10T18:56:30.661Z,99142.13
2022-08-10T18:59:16.057Z,99156.13
2022-08-10T19:01:42.372Z,99151.78
2022-08-10T19:04:34.409Z,99156.72
2022-08-10T19:07:30.453Z,99156.50
2022-08-10T19:10:09.839Z,99150.75
2022-08-10T19:12:54.883Z,99157.88
2022-08-10T19:15:36.271Z,99149.69
2022-08-10T19:18:13.048Z,99158.97
2022-08-10T19:20:48.460Z,99151.34
2022-08-10T19:23:36.118Z,99157.91
2022-08-10T19:26:41.217Z,99168.81
2022-08-10T19:30:12.138Z,99170.44
2022-08-10T19:32:27.134Z,99170.94
2022-08-10T19:35:03.885Z,99168.75
2022-08-10T19:37:59.873Z,99169.00
2022-08-10T19:40:55.454Z,99167.88
2022-08-10T19:44:00.241Z,99168.38
2022-08-10T19:46:34.436Z,99173.53
2022-08-10T19:49:06.069Z,99165.06
2022-08-10T19:52:10.903Z,99162.28
2022-08-10T19:54:57.700Z,99161.44
2022-08-10T19:57:58.598Z,99163.88
2022-08-10T20:00:46.970Z,99165.19
2022-08-10T20:03:20.627Z,99157.53
2022-08-10T20:06:18.181Z,99167.28
2022-08-10T20:08:59.523Z,99165.91
2022-08-10T20:11:45.217Z,99168.81
2022-08-10T20:14:31.639Z,99167.34
2022-08-10T20:17:09.737Z,99169.75
2022-08-10T20:19:53.154Z,99168.66
2022-08-10T20:22:29.580Z,99174.00
2022-08-10T20:25:29.738Z,99170.88
2022-08-10T20:28:18.322Z,99167.78
2022-08-10T20:30:51.034Z,99167.69
2022-08-10T20:33:28.371Z,99174.69
2022-08-10T20:36:09.337Z,99172.41
2022-08-10T20:38:40.854Z,99165.78
2022-08-10T20:41:18.396Z,99170.63
2022-08-10T20:43:55.892Z,99162.84
2022-08-10T20:46:33.315Z,99170.03
2022-08-10T20:49:24.487Z,99171.56
2022-08-10T20:52:00.355Z,99167.13
2022-08-10T20:54:33.447Z,99169.22
2022-08-10T20:57:55.567Z,99171.75
2022-08-10T21:00:11.200Z,99170.84
2022-08-10T21:03:06.787Z,99159.63
2022-08-10T21:06:15.248Z,99160.78
2022-08-10T21:09:01.003Z,99157.28
2022-08-10T21:11:40.606Z,99153.41
2022-08-10T21:14:44.476Z,99151.19
2022-08-10T21:20:30.881Z,99149.38
2022-08-10T21:23:05.495Z,99147.75
2022-08-10T21:26:00.106Z,99144.41
2022-08-10T21:29:01.335Z,99149.09
2022-08-10T21:32:22.547Z,99141.44
2022-08-10T21:35:01.331Z,99143.75
2022-08-10T21:38:05.739Z,99149.56
2022-08-10T21:40:43.734Z,99137.03
2022-08-10T21:43:44.483Z,99141.16
2022-08-10T21:46:36.040Z,99146.78
2022-08-10T21:49:05.413Z,99147.53
2022-08-10T21:52:00.730Z,99144.56
2022-08-10T21:54:42.255Z,99135.44
2022-08-10T21:57:22.683Z,99143.13
2022-08-10T21:59:56.485Z,99138.28
2022-08-10T22:02:28.180Z,99141.22
2022-08-10T22:05:04.548Z,99139.00
2022-08-10T22:07:34.366Z,99144.19
2022-08-10T22:10:05.777Z,99144.09
2022-08-10T22:12:46.966Z,99141.59
2022-08-10T22:15:18.805Z,99140.56
2022-08-10T22:18:03.678Z,99136.59
2022-08-10T22:20:37.388Z,99146.84
2022-08-10T22:23:19.108Z,99143.94
2022-08-10T22:25:45.798Z,99144.97
2022-08-10T22:28:20.182Z,99145.34
2022-08-10T22:31:27.265Z,99151.41
2022-08-10T22:31:28.036Z,99143.94
2022-08-10T22:34:06.285Z,99142.19
2022-08-10T22:36:34.659Z,99149.34
2022-08-10T22:39:16.429Z,99137.03
2022-08-10T22:42:12.289Z,99132.09
2022-08-10T22:44:40.573Z,99135.28
2022-08-10T22:47:08.046Z,99145.50
2022-08-10T22:49:34.495Z,99141.50
2022-08-10T22:52:06.508Z,99146.09
2022-08-10T22:54:35.538Z,99147.38
2022-08-10T22:57:03.206Z,99141.75
2022-08-10T22:59:31.064Z,99144.69
2022-08-10T23:02:08.093Z,99150.91
2022-08-10T23:04:44.799Z,99144.69
2022-08-10T23:07:20.813Z,99143.38
2022-08-10T23:10:07.280Z,99140.78
2022-08-10T23:12:33.573Z,99140.56
2022-08-10T23:15:01.857Z,99149.13
2022-08-10T23:18:01.391Z,99144.66
2022-08-10T23:20:21.312Z,99150.78
2022-08-10T23:22:50.099Z,99152.41
2022-08-10T23:25:21.247Z,99152.78
2022-08-10T23:27:56.024Z,99151.94
2022-08-10T23:30:38.620Z,99146.91
2022-08-10T23:33:11.735Z,99147.63
2022-08-10T23:36:31.212Z,99145.38
2022-08-10T23:38:30.440Z,99152.75
2022-08-10T23:40:59.481Z,99145.56
2022-08-10T23:43:46.657Z,99145.94
2022-08-10T23:46:14.125Z,99144.50
2022-08-10T23:48:45.410Z,99145.59
2022-08-10T23:51:16.367Z,99140.00
2022-08-10T23:53:46.030Z,99138.06
2022-08-10T23:56:16.903Z,99146.31
2022-08-10T23:58:47.955Z,99140.56
